Time;durP1;ratioP1;P1;durP2;ratioP2;P2;SDS_P1;SDS_P2;PMS_P1;PMS_P2;Temp;Humidity;BMP_temperature;BMP_pressure;BME280_temperature;BME280_humidity;BME280_pressure;Samples;Min_cycle;Max_cycle;Signal;HPM_P1;HPM_P2
2021/12/12 00:00:45;;;;;;;40.85;21.40;;;;;;;1.67;76.03;99448.56;6200977;23;20410;-81
2021/12/12 00:03:20;;;;;;;45.58;24.05;;;;;;;1.64;76.16;99449.75;6199691;23;20008;-82
2021/12/12 00:05:55;;;;;;;40.38;21.90;;;;;;;1.62;75.60;99454.38;6227325;23;20008;-81
2021/12/12 00:08:23;;;;;;;45.10;22.20;;;;;;;1.50;75.92;99446.09;6199729;23;20058;-81
2021/12/12 00:10:53;;;;;;;45.53;24.25;;;;;;;1.57;75.31;99458.53;6226444;23;20013;-82
2021/12/12 00:13:25;;;;;;;45.13;23.15;;;;;;;1.48;76.04;99453.34;6194999;23;20024;-82
2021/12/12 00:15:50;;;;;;;40.63;21.73;;;;;;;1.53;75.82;99453.63;6195106;23;20028;-83
2021/12/12 00:18:17;;;;;;;42.08;21.40;;;;;;;1.37;75.64;99437.16;6198381;23;20002;-82
2021/12/12 00:20:46;;;;;;;37.63;21.38;;;;;;;1.54;76.19;99472.84;6225784;23;20004;-82
2021/12/12 00:23:12;;;;;;;42.13;21.05;;;;;;;1.44;76.24;99465.19;6196349;23;20064;-83
2021/12/12 00:25:42;;;;;;;39.28;21.05;;;;;;;1.49;76.20;99467.28;6193731;23;20446;-84
2021/12/12 00:28:09;;;;;;;40.60;21.98;;;;;;;1.54;76.03;99475.47;6190115;23;20144;-84
2021/12/12 00:30:36;;;;;;;36.92;20.95;;;;;;;1.55;75.97;99481.56;6191517;23;20004;-85
2021/12/12 00:33:02;;;;;;;40.38;20.30;;;;;;;1.51;76.18;99473.19;6190845;23;20454;-85
2021/12/12 00:35:28;;;;;;;39.42;21.50;;;;;;;1.27;76.51;99442.63;6192228;23;20040;-84
2021/12/12 00:38:10;;;;;;;36.80;20.17;;;;;;;1.33;76.97;99447.19;6191236;23;20004;-84
2021/12/12 00:40:39;;;;;;;38.67;20.20;;;;;;;1.44;76.76;99462.56;6221194;23;20015;-82
2021/12/12 00:43:11;;;;;;;36.22;20.38;;;;;;;1.53;76.86;99474.66;6193679;23;20019;-82
2021/12/12 00:45:37;;;;;;;36.92;19.15;;;;;;;1.48;77.04;99461.22;6193258;23;20007;-82
2021/12/12 00:48:04;;;;;;;34.83;17.73;;;;;;;1.58;76.51;99471.50;6191322;23;20008;-82
2021/12/12 00:50:34;;;;;;;34.50;17.58;;;;;;;1.58;76.86;99470.69;6192145;23;20335;-82
2021/12/12 00:53:02;;;;;;;35.63;18.73;;;;;;;1.55;76.60;99466.63;6218261;23;20460;-82
2021/12/12 00:55:28;;;;;;;34.10;18.30;;;;;;;1.56;76.85;99472.66;6192545;23;20009;-82
2021/12/12 00:57:54;;;;;;;35.67;19.77;;;;;;;1.61;76.61;99472.97;6193893;23;20062;-83
2021/12/12 01:00:27;;;;;;;33.30;17.55;;;;;;;1.61;76.91;99465.91;6194138;23;20340;-82
2021/12/12 01:02:54;;;;;;;33.35;17.10;;;;;;;1.56;76.63;99454.25;6194726;23;20084;-83
2021/12/12 01:05:20;;;;;;;28.40;15.88;;;;;;;1.29;76.54;99406.47;6194338;23;20005;-83
2021/12/12 01:07:48;;;;;;;28.52;17.05;;;;;;;1.58;76.63;99452.25;6194188;23;20714;-82
2021/12/12 01:10:19;;;;;;;31.17;17.38;;;;;;;1.64;76.44;99470.78;6194391;23;20012;-82
2021/12/12 01:12:45;;;;;;;34.60;17.75;;;;;;;1.64;76.06;99470.78;6194230;23;20005;-82
2021/12/12 01:15:18;;;;;;;32.80;17.08;;;;;;;1.65;76.03;99484.78;6193616;23;20103;-82
2021/12/12 01:17:47;;;;;;;29.15;16.65;;;;;;;1.66;76.59;99479.31;6168544;23;20019;-83
2021/12/12 01:20:46;;;;;;;31.10;15.82;;;;;;;1.56;76.36;99468.22;6220579;23;20005;-83
2021/12/12 01:23:17;;;;;;;30.27;17.52;;;;;;;1.64;75.98;99485.78;6200869;23;20071;-82
2021/12/12 01:25:45;;;;;;;31.80;16.08;;;;;;;1.65;76.05;99495.28;6193453;23;20095;-81
2021/12/12 01:28:13;;;;;;;30.08;16.88;;;;;;;1.53;75.94;99466.75;6195340;23;20091;-81
2021/12/12 01:30:39;;;;;;;27.48;16.08;;;;;;;1.64;76.24;99486.56;6194609;23;20059;-81
2021/12/12 01:33:04;;;;;;;31.27;16.85;;;;;;;1.55;75.84;99452.63;6194741;23;20001;-81
2021/12/12 01:35:30;;;;;;;29.00;16.10;;;;;;;1.47;75.60;99453.50;6194550;23;20443;-81
2021/12/12 01:40:49;;;;;;;32.50;17.15;;;;;;;1.62;76.04;99478.03;6221418;23;20338;-80
2021/12/12 01:43:25;;;;;;;28.02;14.77;;;;;;;1.61;76.16;99471.16;6195362;23;20004;-83
2021/12/12 01:46:00;;;;;;;30.15;15.45;;;;;;;1.39;75.64;99429.91;6219581;23;20008;-83
2021/12/12 01:48:42;;;;;;;32.70;15.77;;;;;;;1.61;75.99;99473.78;6192446;23;20011;-83
2021/12/12 01:51:10;;;;;;;30.17;15.95;;;;;;;1.59;75.81;99465.25;6192256;23;20009;-83
2021/12/12 01:53:39;;;;;;;30.25;16.35;;;;;;;1.56;76.22;99446.34;6193173;23;20012;-83
2021/12/12 01:56:39;;;;;;;28.00;15.90;;;;;;;1.59;75.79;99461.81;6192356;23;20036;-82
2021/12/12 01:59:10;;;;;;;31.67;14.85;;;;;;;1.55;76.38;99450.00;6192541;23;20332;-83
2021/12/12 02:01:41;;;;;;;29.70;16.05;;;;;;;1.10;75.98;99390.31;6198252;23;20341;-84
2021/12/12 02:04:12;;;;;;;30.27;15.23;;;;;;;1.58;76.23;99474.13;6198526;23;20009;-84
2021/12/12 02:06:38;;;;;;;26.42;14.98;;;;;;;1.48;76.08;99442.81;6198981;23;20047;-83
2021/12/12 02:09:06;;;;;;;31.00;16.55;;;;;;;1.44;76.38;99438.09;6197199;23;20005;-84
2021/12/12 02:11:35;;;;;;;30.33;15.50;;;;;;;1.39;76.03;99422.84;6197426;23;20018;-86
2021/12/12 02:14:09;;;;;;;29.38;16.02;;;;;;;1.63;76.17;99465.72;6201656;23;20347;-87
2021/12/12 02:16:38;;;;;;;27.33;14.80;;;;;;;1.65;75.87;99469.81;6202046;23;20150;-86
2021/12/12 02:19:05;;;;;;;32.05;15.70;;;;;;;1.39;76.00;99428.09;6231546;23;20043;-86
2021/12/12 02:21:51;;;;;;;24.83;14.88;;;;;;;1.64;75.81;99462.09;6177096;23;20439;-86
2021/12/12 02:35:36;;;;;;;28.42;15.55;;;;;;;1.44;76.45;99452.03;6225552;23;20458;-83
2021/12/12 02:38:05;;;;;;;31.98;15.88;;;;;;;1.64;76.17;99475.25;6197891;23;20003;-83
2021/12/12 02:40:37;;;;;;;26.38;15.48;;;;;;;1.65;76.58;99476.88;6222922;23;20015;-84
2021/12/12 02:43:04;;;;;;;25.33;15.35;;;;;;;1.64;76.09;99478.69;6223567;23;20008;-84
2021/12/12 02:45:32;;;;;;;25.20;14.85;;;;;;;1.62;76.40;99479.88;6196086;23;20010;-84
2021/12/12 02:48:01;;;;;;;25.60;14.55;;;;;;;1.64;75.95;99477.88;6221555;23;20407;-84
2021/12/12 02:50:35;;;;;;;28.17;15.38;;;;;;;1.63;76.29;99481.50;6221143;23;20039;-82
2021/12/12 02:53:08;;;;;;;29.13;15.90;;;;;;;1.28;76.41;99414.53;6219680;23;20016;-83
2021/12/12 02:55:40;;;;;;;24.73;14.15;;;;;;;1.62;76.52;99467.53;6223591;23;20005;-84
2021/12/12 02:58:10;;;;;;;29.65;15.52;;;;;;;1.65;76.23;99474.25;6193853;23;20139;-84
2021/12/12 03:00:46;;;;;;;28.35;15.27;;;;;;;1.40;76.65;99437.59;6220305;23;20066;-84
2021/12/12 03:03:13;;;;;;;30.05;15.48;;;;;;;1.39;76.56;99427.28;6194157;23;20058;-84
2021/12/12 03:05:48;;;;;;;25.95;14.68;;;;;;;1.24;76.35;99406.19;6193638;23;20099;-83
2021/12/12 03:08:15;;;;;;;25.17;15.47;;;;;;;1.55;76.35;99455.25;6219286;23;20000;-83
2021/12/12 03:10:44;;;;;;;29.25;16.27;;;;;;;1.61;76.61;99455.38;6192736;23;20299;-83
2021/12/12 03:13:13;;;;;;;30.98;15.48;;;;;;;1.64;76.46;99467.38;6218977;23;20024;-83
2021/12/12 03:15:43;;;;;;;26.38;14.90;;;;;;;1.70;76.34;99471.91;6222655;23;20028;-84
2021/12/12 03:18:15;;;;;;;32.08;15.70;;;;;;;1.70;76.61;99482.44;6219872;23;20039;-84
2021/12/12 03:20:48;;;;;;;29.92;15.65;;;;;;;1.71;76.87;99477.00;6197175;23;20431;-84
2021/12/12 03:23:28;;;;;;;25.77;13.82;;;;;;;1.68;76.85;99466.00;6197991;23;20005;-84
2021/12/12 03:26:05;;;;;;;26.90;15.77;;;;;;;1.74;76.43;99486.34;6199727;23;20019;-85
2021/12/12 03:28:33;;;;;;;29.30;16.42;;;;;;;1.74;76.94;99478.47;6226277;23;20050;-84
2021/12/12 03:31:02;;;;;;;32.20;16.52;;;;;;;1.51;76.70;99441.63;6199203;23;20028;-84
2021/12/12 03:33:29;;;;;;;28.73;15.68;;;;;;;1.71;77.19;99473.53;6223751;23;20004;-84
2021/12/12 03:35:57;;;;;;;29.33;16.27;;;;;;;1.73;76.42;99479.44;6198120;23;20008;-84
2021/12/12 03:38:27;;;;;;;28.58;15.23;;;;;;;1.64;76.99;99462.09;6223247;23;20011;-84
2021/12/12 03:40:56;;;;;;;31.13;18.45;;;;;;;1.59;77.28;99452.09;6198525;23;20051;-84
2021/12/12 03:43:23;;;;;;;28.05;15.85;;;;;;;1.77;76.73;99475.47;6171786;23;20127;-84
2021/12/12 03:45:50;;;;;;;30.92;16.50;;;;;;;1.76;76.62;99479.91;6201146;23;20011;-86
2021/12/12 03:48:21;;;;;;;25.85;15.10;;;;;;;1.67;77.35;99472.25;6174921;23;20083;-86
2021/12/12 03:50:50;;;;;;;31.23;17.05;;;;;;;1.70;77.02;99467.47;6199447;23;20021;-85
2021/12/12 03:53:16;;;;;;;28.58;17.38;;;;;;;1.62;76.77;99461.47;6225692;23;20008;-86
2021/12/12 03:55:44;;;;;;;29.00;15.20;;;;;;;1.79;76.47;99484.00;6200138;23;20009;-86
2021/12/12 03:58:10;;;;;;;30.00;17.05;;;;;;;1.34;76.74;99401.50;6197497;23;20337;-86
2021/12/12 04:00:42;;;;;;;28.25;17.33;;;;;;;1.02;76.49;99369.38;6199303;23;20039;-86
2021/12/12 04:03:09;;;;;;;30.27;15.07;;;;;;;1.81;76.64;99490.75;6197858;23;19996;-83
2021/12/12 04:05:35;;;;;;;31.02;17.00;;;;;;;1.78;76.95;99475.28;6196089;23;20057;-84
2021/12/12 04:08:01;;;;;;;26.80;15.98;;;;;;;1.85;76.69;99485.94;6195368;23;20383;-84
2021/12/12 04:10:26;;;;;;;30.38;17.48;;;;;;;1.85;76.99;99484.13;6170507;23;20005;-85
2021/12/12 04:12:53;;;;;;;28.08;15.48;;;;;;;1.82;76.91;99478.38;6193082;23;20005;-85
2021/12/12 04:15:19;;;;;;;24.95;14.27;;;;;;;1.89;76.57;99474.06;6219165;23;20458;-85
2021/12/12 04:17:46;;;;;;;32.53;15.55;;;;;;;1.90;77.11;99471.22;6195082;23;20055;-85
2021/12/12 04:20:17;;;;;;;28.92;15.80;;;;;;;1.89;76.90;99474.88;6197988;23;20008;-85
2021/12/12 04:22:43;;;;;;;29.52;16.75;;;;;;;1.94;77.12;99471.72;6203828;23;20056;-84
2021/12/12 04:25:09;;;;;;;29.48;15.45;;;;;;;1.93;77.17;99473.53;6202252;23;20005;-84
2021/12/12 04:27:35;;;;;;;27.25;16.20;;;;;;;1.94;77.00;99477.81;6224249;23;20005;-85
2021/12/12 04:30:04;;;;;;;25.42;16.23;;;;;;;1.80;76.85;99448.78;6196939;23;20096;-85
2021/12/12 04:32:30;;;;;;;28.92;16.45;;;;;;;1.95;77.09;99489.13;6193529;23;20000;-85
2021/12/12 04:35:27;;;;;;;27.00;15.68;;;;;;;1.77;76.90;99449.97;6168801;23;20027;-85
2021/12/12 04:37:53;;;;;;;29.95;15.98;;;;;;;1.92;76.89;99476.34;6194587;23;20000;-83
2021/12/12 04:40:22;;;;;;;36.10;17.52;;;;;;;1.86;77.07;99459.44;6194747;23;20062;-83
2021/12/12 04:42:51;;;;;;;31.15;17.65;;;;;;;1.87;77.20;99461.09;6196068;23;20023;-83
2021/12/12 04:45:40;;;;;;;27.63;16.67;;;;;;;1.94;76.95;99464.66;6226211;23;20004;-83
2021/12/12 04:51:34;;;;;;;30.88;16.05;;;;;;;1.94;76.95;99461.19;6224374;23;20059;-83
2021/12/12 04:54:04;;;;;;;24.10;15.02;;;;;;;1.94;76.72;99469.09;6198685;23;20087;-83
2021/12/12 04:56:29;;;;;;;26.67;16.73;;;;;;;1.93;77.10;99476.16;6198666;23;20431;-83
2021/12/12 04:59:21;;;;;;;29.58;18.42;;;;;;;1.93;76.84;99468.25;6196121;23;20008;-83
2021/12/12 05:02:11;;;;;;;29.95;17.30;;;;;;;1.93;76.96;99470.06;6195924;23;20000;-84
2021/12/12 05:04:43;;;;;;;29.67;16.88;;;;;;;1.80;77.04;99448.78;6201390;23;20004;-85
2021/12/12 05:07:26;;;;;;;28.73;16.23;;;;;;;1.93;76.89;99467.44;6196005;23;20007;-84
2021/12/12 05:09:56;;;;;;;25.60;16.80;;;;;;;1.91;77.23;99470.25;6202163;23;20001;-86
2021/12/12 05:12:29;;;;;;;30.23;16.00;;;;;;;1.97;76.68;99474.78;6229331;23;20004;-86
2021/12/12 05:15:00;;;;;;;27.30;17.00;;;;;;;1.97;77.29;99472.16;6228945;23;20008;-86
2021/12/12 05:17:35;;;;;;;31.30;16.52;;;;;;;1.99;77.12;99475.44;6228921;23;19996;-86
2021/12/12 05:20:06;;;;;;;29.63;16.45;;;;;;;1.94;77.21;99469.09;6228405;23;20062;-85
2021/12/12 05:22:53;;;;;;;27.02;16.35;;;;;;;1.99;76.79;99475.44;6224861;23;20001;-85
2021/12/12 05:25:35;;;;;;;25.52;15.05;;;;;;;1.99;76.96;99475.44;6219411;23;20004;-84
2021/12/12 05:28:02;;;;;;;31.30;17.38;;;;;;;1.92;77.56;99468.44;6225112;23;20004;-83
2021/12/12 05:30:32;;;;;;;28.90;17.10;;;;;;;1.92;77.97;99479.75;6220232;23;20042;-82
2021/12/12 05:32:59;;;;;;;33.28;15.88;;;;;;;1.85;78.15;99483.31;6195690;23;20061;-84
2021/12/12 05:35:29;;;;;;;32.60;17.10;;;;;;;1.79;78.49;99481.38;6223322;23;20099;-84
2021/12/12 05:37:56;;;;;;;34.85;16.73;;;;;;;1.71;79.17;99484.88;6219226;23;20004;-83
2021/12/12 05:40:29;;;;;;;31.88;14.60;;;;;;;1.68;79.24;99493.16;6194954;23;20004;-84
2021/12/12 05:42:59;;;;;;;22.20;11.23;;;;;;;1.48;79.47;99465.66;6219197;23;20031;-83
2021/12/12 05:45:28;;;;;;;23.02;11.30;;;;;;;1.61;79.64;99491.38;6220530;23;20004;-85
2021/12/12 05:47:54;;;;;;;22.17;11.60;;;;;;;1.48;80.33;99471.75;6192742;23;20012;-84
2021/12/12 05:50:20;;;;;;;17.08;11.30;;;;;;;1.56;80.33;99489.28;6195182;23;20435;-82
2021/12/12 05:52:46;;;;;;;20.67;10.07;;;;;;;1.56;80.51;99499.78;6192923;23;20004;-85
2021/12/12 05:55:19;;;;;;;26.13;9.30;;;;;;;1.55;80.52;99502.59;6220725;23;20058;-85
2021/12/12 05:57:53;;;;;;;19.83;9.23;;;;;;;1.52;81.16;99488.81;6166637;23;20436;-84
2021/12/12 06:00:21;;;;;;;17.98;9.43;;;;;;;1.55;81.14;99486.84;6216658;23;20329;-84
2021/12/12 06:02:47;;;;;;;19.75;9.45;;;;;;;1.43;80.83;99473.25;6192161;23;20037;-82
2021/12/12 06:05:12;;;;;;;14.18;8.23;;;;;;;1.47;80.91;99485.88;6216427;23;20009;-83
2021/12/12 06:07:39;;;;;;;16.17;9.13;;;;;;;1.35;80.73;99466.25;6191480;23;20008;-82
2021/12/12 06:10:11;;;;;;;16.73;9.85;;;;;;;1.52;81.18;99480.94;6192146;23;20006;-85
2021/12/12 06:12:37;;;;;;;15.73;8.73;;;;;;;1.56;80.87;99493.72;6191488;23;20008;-83
2021/12/12 06:15:07;;;;;;;19.05;8.52;;;;;;;1.55;80.87;99499.97;6191224;23;20009;-83
2021/12/12 06:17:33;;;;;;;13.93;9.10;;;;;;;1.54;80.98;99496.53;6190776;23;20009;-82
2021/12/12 06:20:00;;;;;;;16.73;8.85;;;;;;;1.47;81.00;99474.53;6217498;23;20071;-82
2021/12/12 06:22:26;;;;;;;17.63;9.35;;;;;;;1.43;80.49;99468.81;6218964;23;19997;-85
2021/12/12 06:24:53;;;;;;;16.80;9.70;;;;;;;1.43;80.52;99462.75;6194054;23;20013;-86
2021/12/12 06:27:20;;;;;;;14.63;9.35;;;;;;;1.50;80.73;99479.47;6193608;23;20020;-83
2021/12/12 06:29:49;;;;;;;17.42;9.98;;;;;;;1.56;80.94;99486.66;6220889;23;20439;-84
2021/12/12 06:32:16;;;;;;;14.10;8.80;;;;;;;1.53;80.48;99476.47;6191896;23;20321;-85
2021/12/12 06:34:43;;;;;;;20.38;10.45;;;;;;;1.50;80.79;99479.47;6191626;23;20019;-83
2021/12/12 06:37:09;;;;;;;14.10;10.00;;;;;;;1.46;81.08;99459.78;6192391;23;20012;-84
2021/12/12 06:39:36;;;;;;;17.33;9.60;;;;;;;1.34;81.04;99446.19;6219116;23;20115;-83
2021/12/12 06:42:04;;;;;;;12.75;9.23;;;;;;;1.56;81.10;99475.28;6219726;23;20005;-84
2021/12/12 06:44:30;;;;;;;16.15;9.65;;;;;;;1.56;81.09;99480.56;6191477;23;20004;-84
2021/12/12 06:46:56;;;;;;;15.30;9.25;;;;;;;1.58;81.10;99470.69;6191811;23;20110;-84
2021/12/12 06:49:23;;;;;;;14.00;8.82;;;;;;;1.57;81.28;99476.94;6215911;23;20014;-83
2021/12/12 06:51:52;;;;;;;18.38;9.82;;;;;;;1.57;80.91;99479.56;6189407;23;20009;-82
2021/12/12 06:54:21;;;;;;;13.75;7.93;;;;;;;1.57;81.25;99482.22;6189558;23;20016;-83
2021/12/12 06:56:48;;;;;;;14.00;8.48;;;;;;;1.45;81.30;99477.34;6189686;23;20455;-83
2021/12/12 06:59:14;;;;;;;15.98;8.07;;;;;;;1.54;80.99;99491.25;6165443;23;20032;-82
2021/12/12 07:01:40;;;;;;;12.02;9.10;;;;;;;1.56;81.04;99491.06;6189944;23;20023;-83
2021/12/12 07:04:08;;;;;;;15.02;8.75;;;;;;;1.57;81.64;99492.72;6220894;23;20008;-83
2021/12/12 07:06:34;;;;;;;15.63;9.13;;;;;;;1.60;81.15;99487.09;6190518;23;20344;-84
2021/12/12 07:09:05;;;;;;;16.52;8.35;;;;;;;1.57;81.19;99483.03;6188731;23;20019;-83
2021/12/12 07:11:32;;;;;;;13.65;7.78;;;;;;;1.54;81.39;99493.91;6217810;23;20469;-82
2021/12/12 07:13:58;;;;;;;13.65;8.60;;;;;;;1.59;81.69;99499.47;6193976;23;20016;-82
2021/12/12 07:16:24;;;;;;;12.68;8.48;;;;;;;1.48;80.94;99492.78;6193066;23;20020;-83
2021/12/12 07:18:53;;;;;;;13.73;7.93;;;;;;;1.54;80.79;99496.53;6191666;23;20038;-84
2021/12/12 07:21:21;;;;;;;14.10;7.57;;;;;;;1.60;81.51;99506.34;6193055;23;20031;-83
2021/12/12 07:23:49;;;;;;;18.45;7.65;;;;;;;1.45;81.71;99479.97;6193387;23;20036;-82
2021/12/12 07:26:17;;;;;;;14.35;6.68;;;;;;;1.47;81.01;99479.81;6218593;23;20035;-82
2021/12/12 07:28:47;;;;;;;8.60;6.93;;;;;;;1.57;81.71;99498.00;6218263;23;20004;-83
2021/12/12 07:31:17;;;;;;;12.52;6.70;;;;;;;1.59;82.00;99501.25;6194234;23;20039;-83
2021/12/12 07:33:44;;;;;;;9.27;6.28;;;;;;;1.63;81.60;99508.63;6192226;23;20050;-83
2021/12/12 07:36:12;;;;;;;10.07;6.70;;;;;;;1.61;81.50;99500.09;6191831;23;20347;-84
2021/12/12 07:38:43;;;;;;;9.82;6.63;;;;;;;1.54;81.26;99491.25;6193202;23;20010;-83
2021/12/12 07:41:09;;;;;;;10.00;5.65;;;;;;;1.59;81.74;99498.63;6198050;23;20091;-83
2021/12/12 07:43:35;;;;;;;9.18;6.65;;;;;;;1.59;81.70;99493.38;6196434;23;20064;-82
2021/12/12 07:46:02;;;;;;;7.88;5.28;;;;;;;1.64;82.17;99496.31;6197756;23;20060;-82
2021/12/12 07:48:28;;;;;;;11.82;6.28;;;;;;;1.56;81.94;99478.75;6171723;23;20032;-83
2021/12/12 07:50:54;;;;;;;12.65;5.78;;;;;;;1.65;82.09;99492.66;6198011;23;20013;-83
2021/12/12 07:53:22;;;;;;;9.35;5.07;;;;;;;1.59;82.26;99488.94;6172976;23;20011;-83
2021/12/12 07:55:48;;;;;;;12.30;5.28;;;;;;;1.51;81.52;99471.38;6196586;23;20134;-82
2021/12/12 07:58:16;;;;;;;9.60;5.20;;;;;;;1.47;81.99;99475.38;6195831;23;20008;-82
2021/12/12 08:00:48;;;;;;;12.32;5.50;;;;;;;1.67;81.88;99501.19;6170298;23;20102;-82
2021/12/12 08:03:27;;;;;;;14.00;4.82;;;;;;;1.60;82.48;99480.03;6196564;23;20005;-83
2021/12/12 08:05:54;;;;;;;10.65;4.50;;;;;;;1.68;82.68;99487.88;6199459;23;20039;-83
2021/12/12 08:08:20;;;;;;;10.52;4.70;;;;;;;1.55;82.17;99465.78;6201401;23;20008;-84
2021/12/12 16:46:53;;;;;;;15.52;6.65;;;;;;;2.93;86.52;99522.19;6216396;23;20023;-86
2021/12/12 16:49:22;;;;;;;18.95;7.75;;;;;;;2.94;86.30;99518.56;6188262;23;20031;-87
2021/12/12 16:52:00;;;;;;;19.23;8.10;;;;;;;2.93;86.59;99515.13;6214003;23;20004;-86
2021/12/12 16:54:59;;;;;;;18.02;7.40;;;;;;;2.95;86.53;99514.91;6214094;23;20051;-86
2021/12/12 16:57:29;;;;;;;13.10;6.70;;;;;;;2.97;86.57;99523.50;6183733;23;20012;-86
2021/12/12 17:00:23;;;;;;;20.30;7.28;;;;;;;2.75;86.89;99487.50;6189677;23;20011;-87
2021/12/12 17:02:54;;;;;;;10.82;5.85;;;;;;;2.92;86.77;99505.59;6187505;23;20012;-86
2021/12/12 17:05:32;;;;;;;11.90;6.03;;;;;;;2.96;87.02;99512.13;6215050;23;20032;-86
2021/12/12 17:08:14;;;;;;;9.05;6.20;;;;;;;3.04;86.75;99529.66;6189731;23;20017;-86
2021/12/12 17:10:50;;;;;;;6.22;4.95;;;;;;;3.04;86.76;99530.47;6188861;23;20008;-86
2021/12/12 17:13:17;;;;;;;7.38;5.47;;;;;;;3.05;86.87;99531.28;6213658;23;20009;-87
2021/12/12 17:15:45;;;;;;;7.32;6.35;;;;;;;3.06;86.55;99525.00;6163128;23;20016;-87
2021/12/12 17:18:15;;;;;;;6.00;4.68;;;;;;;2.94;86.37;99508.84;6163521;23;20067;-86
2021/12/12 17:20:53;;;;;;;6.53;5.22;;;;;;;3.06;86.82;99526.84;6188750;23;20431;-87
2021/12/12 17:23:23;;;;;;;7.32;4.65;;;;;;;3.07;86.73;99526.66;6213421;23;20009;-87
2021/12/12 17:25:51;;;;;;;5.70;4.82;;;;;;;2.86;86.66;99489.69;6188400;23;20091;-86
2021/12/12 17:28:21;;;;;;;5.50;4.72;;;;;;;3.02;86.94;99514.00;6187138;23;20000;-86
2021/12/12 17:30:54;;;;;;;6.82;5.43;;;;;;;3.09;86.77;99529.09;6188472;23;20087;-86
2021/12/12 17:33:27;;;;;;;5.68;4.88;;;;;;;3.09;86.88;99532.56;6188335;23;20008;-86
2021/12/12 17:36:07;;;;;;;6.05;5.45;;;;;;;3.10;86.58;99528.09;6215553;23;20005;-86
2021/12/12 17:38:57;;;;;;;6.03;5.10;;;;;;;3.09;86.90;99532.56;6213445;23;20004;-85
2021/12/12 17:41:49;;;;;;;5.30;4.15;;;;;;;3.10;86.94;99542.13;6181326;23;20005;-85
2021/12/12 17:44:21;;;;;;;5.55;4.57;;;;;;;3.10;86.88;99536.84;6147018;23;20023;-85
2021/12/12 17:47:11;;;;;;;8.18;5.25;;;;;;;2.98;87.03;99525.94;6189336;23;20069;-85
2021/12/12 17:50:14;;;;;;;7.57;5.75;;;;;;;3.10;86.69;99538.66;6187974;23;20055;-86
2021/12/12 17:53:18;;;;;;;6.28;5.15;;;;;;;3.09;87.00;99542.28;6213627;23;20008;-86
2021/12/12 17:56:19;;;;;;;6.53;5.22;;;;;;;3.09;86.97;99548.38;6216538;23;20036;-84
2021/12/12 17:58:56;;;;;;;6.38;5.30;;;;;;;3.10;87.23;99557.13;6191124;23;20001;-86
2021/12/12 18:01:34;;;;;;;6.05;5.45;;;;;;;2.97;87.34;99528.75;6188445;23;20005;-85
2021/12/12 18:04:09;;;;;;;6.35;5.72;;;;;;;3.11;86.95;99542.91;6192070;23;20003;-85
2021/12/12 18:06:39;;;;;;;5.72;5.22;;;;;;;3.13;86.99;99551.47;6189798;23;20005;-85
2021/12/12 18:09:16;;;;;;;6.72;6.00;;;;;;;3.13;86.97;99549.66;6193383;23;20009;-85
2021/12/12 18:11:54;;;;;;;8.20;6.43;;;;;;;3.14;87.24;99550.47;6196585;23;20459;-85
2021/12/12 18:14:20;;;;;;;6.68;5.90;;;;;;;3.15;87.39;99555.56;6190433;23;20058;-85
2021/12/12 18:16:55;;;;;;;7.22;6.35;;;;;;;3.16;87.16;99559.00;6190344;23;20444;-86
2021/12/12 18:19:36;;;;;;;7.43;6.30;;;;;;;3.15;87.22;99558.19;6191962;23;20004;-86
2021/12/12 18:22:09;;;;;;;8.75;6.53;;;;;;;3.17;87.45;99555.38;6189302;23;20244;-85
2021/12/12 18:24:38;;;;;;;9.55;6.88;;;;;;;3.18;87.37;99557.84;6217324;23;20087;-85
2021/12/12 18:27:12;;;;;;;10.63;7.15;;;;;;;3.18;87.09;99564.91;6190393;23;20051;-86
2021/12/12 18:30:15;;;;;;;8.63;6.70;;;;;;;3.10;86.69;99551.84;6190600;23;20035;-86
2021/12/12 18:32:44;;;;;;;9.57;7.72;;;;;;;3.18;86.92;99565.75;6191315;23;20023;-86
2021/12/12 18:35:12;;;;;;;9.57;7.45;;;;;;;3.22;86.89;99563.53;6190965;23;20012;-85
2021/12/12 18:37:44;;;;;;;11.40;7.82;;;;;;;3.22;87.04;99564.38;6189943;23;20016;-86
2021/12/12 18:40:15;;;;;;;8.63;6.70;;;;;;;3.05;87.01;99531.28;6189942;23;20020;-89
2021/12/12 18:42:46;;;;;;;12.00;8.07;;;;;;;3.17;86.91;99550.91;6190556;23;20004;-86
2021/12/12 18:45:18;;;;;;;9.65;7.68;;;;;;;3.23;87.04;99563.38;6215816;23;20011;-87
2021/12/12 18:47:54;;;;;;;10.95;7.75;;;;;;;3.23;87.10;99566.03;6190126;23;20019;-85
2021/12/12 18:50:30;;;;;;;8.82;6.97;;;;;;;3.14;87.17;99551.28;6189761;23;20091;-85
2021/12/12 18:53:01;;;;;;;9.40;7.57;;;;;;;3.17;86.90;99550.91;6213742;23;20005;-86
2021/12/12 18:55:30;;;;;;;10.35;8.18;;;;;;;3.16;87.19;99557.19;6216779;23;20009;-84
2021/12/12 18:58:14;;;;;;;11.15;9.18;;;;;;;3.24;86.81;99580.00;6195458;23;20084;-84
2021/12/12 19:00:46;;;;;;;13.73;9.82;;;;;;;3.26;87.37;99576.19;6196248;23;20155;-85
2021/12/12 19:03:18;;;;;;;13.95;9.57;;;;;;;3.00;86.95;99534.47;6196582;23;20011;-84
2021/12/12 19:05:47;;;;;;;13.15;9.02;;;;;;;3.22;87.22;99568.81;6196856;23;20086;-85
2021/12/12 19:08:20;;;;;;;13.52;9.00;;;;;;;3.23;87.26;99573.09;6198750;23;20008;-84
2021/12/12 19:11:00;;;;;;;11.38;8.77;;;;;;;3.29;86.90;99591.66;6196129;23;20008;-85
2021/12/12 19:13:32;;;;;;;9.98;8.07;;;;;;;3.22;87.29;99569.66;6195219;23;20020;-84
2021/12/12 19:16:00;;;;;;;10.80;8.02;;;;;;;3.10;86.79;99549.22;6194606;23;20143;-84
2021/12/12 19:18:36;;;;;;;12.77;8.30;;;;;;;3.20;87.18;99581.38;6221965;23;20345;-84
2021/12/12 19:21:42;;;;;;;10.85;7.65;;;;;;;3.29;87.22;99591.66;6169145;23;20005;-85
2021/12/12 19:24:14;;;;;;;9.55;7.60;;;;;;;3.31;87.23;99594.09;6195268;23;20083;-84
2021/12/12 19:26:55;;;;;;;8.95;8.00;;;;;;;3.31;87.24;99594.09;6194403;23;20103;-84
2021/12/12 19:29:50;;;;;;;9.05;7.05;;;;;;;3.06;87.20;99559.28;6206942;23;20064;-84
2021/12/12 19:32:20;;;;;;;8.57;7.25;;;;;;;3.11;87.38;99556.09;6232609;23;20027;-83
2021/12/12 19:34:51;;;;;;;7.82;7.00;;;;;;;2.90;87.39;99510.22;6233069;23;20067;-84
2021/12/12 19:37:19;;;;;;;7.85;6.88;;;;;;;3.33;87.27;99586.81;6207031;23;20000;-84
2021/12/12 19:39:54;;;;;;;7.68;6.45;;;;;;;2.84;87.09;99497.75;6233744;23;20497;-84
2021/12/12 19:42:30;;;;;;;11.05;7.20;;;;;;;3.33;86.95;99576.28;6234865;23;20000;-84
2021/12/12 19:45:04;;;;;;;9.38;7.30;;;;;;;2.96;87.18;99521.84;6235283;23;20001;-84
2021/12/12 19:47:30;;;;;;;9.18;7.32;;;;;;;2.85;87.44;99509.94;6204045;23;19997;-83
2021/12/12 19:49:58;;;;;;;9.90;7.25;;;;;;;3.03;87.35;99538.56;6203070;23;20013;-83
2021/12/12 19:52:33;;;;;;;9.23;7.45;;;;;;;2.92;87.04;99510.84;6229977;23;20016;-83
2021/12/12 19:55:12;;;;;;;9.32;8.05;;;;;;;3.37;87.09;99588.09;6201958;23;20008;-83
2021/12/12 19:57:40;;;;;;;8.73;7.80;;;;;;;2.88;87.20;99508.75;6226519;23;20004;-82
2021/12/12 20:00:30;;;;;;;10.57;8.35;;;;;;;3.37;87.11;99598.63;6225350;23;20612;-84
2021/12/12 20:03:05;;;;;;;10.73;8.15;;;;;;;3.06;87.28;99540.03;6224186;23;20566;-84
2021/12/12 20:05:31;;;;;;;10.02;8.65;;;;;;;3.40;87.17;99598.28;6223981;23;20000;-83
2021/12/12 20:08:11;;;;;;;11.23;8.50;;;;;;;3.35;86.99;99603.28;6195345;23;20008;-84
2021/12/12 20:10:40;;;;;;;12.10;9.13;;;;;;;3.42;86.97;99606.81;6202797;23;20009;-82
2021/12/12 20:13:06;;;;;;;9.32;7.90;;;;;;;2.94;86.99;99532.59;6229799;23;20012;-83
2021/12/12 20:15:37;;;;;;;11.55;8.43;;;;;;;3.41;87.17;99613.09;6230025;23;20084;-83
2021/12/12 20:18:07;;;;;;;9.02;7.55;;;;;;;3.43;87.27;99611.13;6225798;23;20015;-86
2021/12/12 20:20:36;;;;;;;10.48;8.68;;;;;;;3.37;87.12;99603.91;6190426;23;20016;-85
2021/12/12 20:23:10;;;;;;;10.98;9.05;;;;;;;3.35;87.44;99605.91;6196753;23;20004;-84
2021/12/12 20:25:39;;;;;;;12.25;8.93;;;;;;;3.37;87.10;99604.75;6216560;23;20105;-84
2021/12/12 20:28:10;;;;;;;13.38;9.93;;;;;;;3.43;87.16;99622.47;6193667;23;20452;-85
2021/12/12 20:30:37;;;;;;;10.48;8.48;;;;;;;3.34;87.27;99607.72;6194140;23;20005;-85
2021/12/12 20:33:13;;;;;;;10.48;8.60;;;;;;;3.38;87.19;99611.66;6198078;23;20009;-84
2021/12/12 20:35:43;;;;;;;11.30;9.35;;;;;;;3.44;87.47;99615.38;6206982;23;20009;-83
2021/12/12 20:38:14;;;;;;;12.52;8.55;;;;;;;3.43;87.29;99609.28;6232744;23;20091;-84
2021/12/12 20:40:47;;;;;;;10.55;8.85;;;;;;;3.44;87.21;99616.19;6208895;23;20017;-83
2021/12/12 20:43:18;;;;;;;10.88;8.40;;;;;;;3.00;87.47;99545.03;6208686;23;20004;-84
2021/12/12 20:45:47;;;;;;;10.88;7.90;;;;;;;3.06;87.01;99547.94;6232666;23;20004;-82